EVLA

Liepāja International Airport

Liepāja, Latvia
METAR EVLA 210520Z AUTO 00000KT 9999 FEW028/// BKN049/// OVC079/// 15/14 Q1013
Observed Flight Rules
Aug-21 @ 05:20 UTC (9 hours ago) Visual Flight Rules
Visibility Clouds
10,000+ meters
  • Few at 2,800' AGL
  • Broken at 4,900' AGL
  • Overcast at 7,900' AGL
Temperatures Readings
Current 15°C / 59°F
Dewpoint 14°C / 57°F
Humidity 94%
Altimeter 29.91" Hg
Pressure 1013 hPa
Elevation 4
METAR EVLA 210520Z AUTO 00000KT 9999 FEW028/// BKN049/// OVC079/// 15/14 Q1013
Observed Flight Rules
Aug-21 @ 05:20 UTC
(9 hours ago)
VFR
Clouds
  • Few at 2,800' AGL
  • Broken at 4,900' AGL
  • Overcast at 7,900' AGL
Temperature Dewpoint
15°C / 59°F 14°C / 57°F
Humidity Altimeter Pressure
94% 29.91" Hg 1013 hPa